createdAt,value
2018-01-22T00:00:46.923Z,87.04
2018-01-22T00:01:47.753Z,87.38
2018-01-22T00:02:48.406Z,87.31
2018-01-22T00:03:47.194Z,87.37
2018-01-22T00:04:47.048Z,87.56
2018-01-22T00:05:47.272Z,87.79
2018-01-22T00:06:47.604Z,87.92
2018-01-22T00:07:46.958Z,87.8
2018-01-22T00:08:47.470Z,87.86
2018-01-22T00:09:47.322Z,87.78
2018-01-22T00:10:49.284Z,88.06
2018-01-22T00:11:47.083Z,88.13
2018-01-22T00:12:47.182Z,88.04
2018-01-22T00:13:47.178Z,88.19
2018-01-22T00:14:47.665Z,88.51
2018-01-22T00:15:47.246Z,88.16
2018-01-22T00:16:48.669Z,88.21
2018-01-22T00:17:47.173Z,87.91
2018-01-22T00:18:47.452Z,87.99
2018-01-22T00:19:49.526Z,88.6
2018-01-22T00:20:48.389Z,88.13
2018-01-22T00:21:49.727Z,88.35
2018-01-22T00:22:47.012Z,88.5
2018-01-22T00:23:48.308Z,88.64
2018-01-22T00:24:47.168Z,88.25
2018-01-22T00:25:48.027Z,88.44
2018-01-22T00:26:47.579Z,88.02
2018-01-22T00:27:47.482Z,88.51
2018-01-22T00:28:50.084Z,88.81
2018-01-22T00:29:47.326Z,89.17
2018-01-22T00:30:47.270Z,88.69
2018-01-22T00:31:46.797Z,88.92
2018-01-22T00:32:47.191Z,89.04
2018-01-22T00:33:46.393Z,89.23
2018-01-22T00:34:47.300Z,89.03
2018-01-22T00:35:47.248Z,89.16
2018-01-22T00:36:48.666Z,89.13
2018-01-22T00:37:47.188Z,88.89
2018-01-22T00:38:47.835Z,89.43
2018-01-22T00:39:47.507Z,89.53
2018-01-22T00:40:47.026Z,89.8
2018-01-22T00:41:48.330Z,89.56
2018-01-22T00:42:47.421Z,89.78
2018-01-22T00:43:47.154Z,89.91
2018-01-22T00:44:47.133Z,90.06
2018-01-22T00:45:47.091Z,89.78
2018-01-22T00:46:47.199Z,90.22
2018-01-22T00:47:47.276Z,89.72
2018-01-22T00:49:47.084Z,89.47
2018-01-22T00:50:47.375Z,90.16
2018-01-22T00:51:47.231Z,90.18
2018-01-22T00:52:48.617Z,90.2
2018-01-22T00:53:47.405Z,90.18
2018-01-22T00:54:47.371Z,90.11
2018-01-22T00:55:47.247Z,90.58
2018-01-22T00:56:47.608Z,90.24
2018-01-22T00:57:47.315Z,90.29
2018-01-22T00:58:47.313Z,90.35
2018-01-22T00:59:47.083Z,90.86
2018-01-22T01:00:47.002Z,90.93
2018-01-22T01:01:47.223Z,90.93
2018-01-22T01:02:47.149Z,90.57
2018-01-22T01:03:47.074Z,90.88
2018-01-22T01:04:47.459Z,91.07
2018-01-22T01:05:47.427Z,91.23
2018-01-22T01:06:47.288Z,91.11
2018-01-22T01:09:48.041Z,91.22
2018-01-22T01:10:46.811Z,91.47
2018-01-22T01:11:47.334Z,91.51
2018-01-22T01:12:48.137Z,91.44
2018-01-22T01:13:47.385Z,91.7
2018-01-22T01:14:47.537Z,92.04
2018-01-22T01:15:47.205Z,91.8
2018-01-22T01:16:47.300Z,91.56
2018-01-22T01:17:47.413Z,91.78
2018-01-22T01:18:46.968Z,91.93
2018-01-22T01:19:46.771Z,91.47
2018-01-22T01:20:47.317Z,91.54
2018-01-22T01:21:47.326Z,91.88
2018-01-22T01:22:47.163Z,91.72
2018-01-22T01:23:47.811Z,91.93
2018-01-22T01:24:47.358Z,91.72
2018-01-22T01:25:47.646Z,92.07
2018-01-22T01:26:49.530Z,91.55
2018-01-22T01:27:47.332Z,91.87
2018-01-22T01:28:46.840Z,92.17
2018-01-22T01:29:48.325Z,92.23
2018-01-22T01:30:48.280Z,91.98
2018-01-22T01:31:46.969Z,91.62
2018-01-22T01:32:47.305Z,91.66
2018-01-22T01:33:47.800Z,92.11
2018-01-22T01:34:47.787Z,91.98
2018-01-22T01:35:46.901Z,92.26
2018-01-22T01:36:47.119Z,92.75
2018-01-22T01:37:47.769Z,92.26
2018-01-22T01:40:03.419Z,92.27
2018-01-22T01:40:47.857Z,92.09
2018-01-22T01:41:47.247Z,92.4
2018-01-22T01:45:47.726Z,92.46
2018-01-22T01:46:47.384Z,92.25
2018-01-22T01:47:47.529Z,92.57
2018-01-22T01:48:47.577Z,92.66
2018-01-22T01:49:47.954Z,92.57
2018-01-22T01:50:47.614Z,92.66
2018-01-22T01:51:48.209Z,92.63
2018-01-22T01:52:46.708Z,92.74
2018-01-22T01:53:47.571Z,92.7
2018-01-22T01:54:47.805Z,92.84
2018-01-22T01:55:47.349Z,93.02
2018-01-22T01:56:46.942Z,93.05
2018-01-22T01:57:47.484Z,93.14
2018-01-22T01:58:47.704Z,93.45
2018-01-22T01:59:46.854Z,92.93
2018-01-22T02:00:47.476Z,93
2018-01-22T02:01:47.354Z,93.2
2018-01-22T02:02:47.969Z,93.61
2018-01-22T02:03:47.881Z,93.52
2018-01-22T02:04:47.380Z,93.3
2018-01-22T02:05:47.695Z,93.22
2018-01-22T02:06:48.582Z,93.55
2018-01-22T02:07:49.558Z,93.63
2018-01-22T02:08:48.573Z,93.4
2018-01-22T02:09:47.189Z,93.79
2018-01-22T02:10:48.167Z,93.74
2018-01-22T02:11:47.184Z,93.93
2018-01-22T02:12:47.861Z,93.98
2018-01-22T02:13:47.403Z,93.89
2018-01-22T02:14:47.768Z,93.89
2018-01-22T02:15:47.429Z,93.98
2018-01-22T02:16:47.323Z,94.01
2018-01-22T02:17:47.240Z,94.03
2018-01-22T02:18:47.424Z,94
2018-01-22T02:19:48.208Z,94.01
2018-01-22T02:20:47.168Z,94.19
2018-01-22T02:21:47.506Z,94.12
2018-01-22T02:25:08.326Z,94.04
2018-01-22T02:27:47.396Z,94.25
2018-01-22T02:28:47.701Z,94.16
2018-01-22T02:29:47.924Z,94.05
2018-01-22T02:30:46.894Z,94.07
2018-01-22T02:31:47.281Z,94.09
2018-01-22T02:32:47.357Z,94.46
2018-01-22T02:33:47.173Z,94.25
2018-01-22T02:34:47.570Z,94.2
2018-01-22T02:35:47.526Z,94.42
2018-01-22T02:36:47.356Z,94.25
2018-01-22T02:37:48.464Z,94.29
2018-01-22T02:38:47.152Z,94.27
2018-01-22T02:39:47.799Z,94.32
2018-01-22T02:40:47.218Z,94.31
2018-01-22T02:41:47.418Z,94.2
2018-01-22T02:42:48.556Z,94.26
2018-01-22T02:43:47.545Z,94.42
2018-01-22T02:47:47.836Z,94.26
2018-01-22T02:48:47.363Z,94.43
2018-01-22T02:49:47.961Z,94.48
2018-01-22T02:50:47.911Z,94.46
2018-01-22T02:51:47.416Z,94.28
2018-01-22T02:52:47.364Z,94.53
2018-01-22T02:53:47.783Z,94.05
2018-01-22T02:54:47.890Z,94.11
2018-01-22T02:55:49.686Z,94.23
2018-01-22T02:56:47.788Z,94.48
2018-01-22T02:57:47.462Z,94.68
2018-01-22T02:58:47.965Z,94.51
2018-01-22T03:00:47.322Z,94.33
2018-01-22T03:01:48.684Z,94.14
2018-01-22T03:02:49.578Z,93.91
2018-01-22T03:03:47.383Z,94.33
2018-01-22T03:04:48.208Z,94.49
2018-01-22T03:05:47.356Z,94.14
2018-01-22T03:06:47.272Z,94.28
2018-01-22T03:08:48.408Z,94.34
2018-01-22T03:09:46.916Z,94.47
2018-01-22T03:10:47.613Z,94.79
2018-01-22T03:11:47.435Z,94.53
2018-01-22T03:12:46.837Z,94.73
2018-01-22T03:13:46.352Z,94.81
2018-01-22T03:14:46.260Z,94.56
2018-01-22T03:15:46.220Z,94.36
2018-01-22T03:16:46.226Z,94.21
2018-01-22T03:17:46.181Z,94.44
2018-01-22T03:18:46.351Z,94.34
2018-01-22T03:21:46.499Z,94.44
2018-01-22T03:22:46.162Z,94.5
2018-01-22T03:23:46.336Z,94.28
2018-01-22T03:24:46.344Z,94.26
2018-01-22T03:25:46.256Z,94.45
2018-01-22T03:26:46.370Z,94.39
2018-01-22T03:27:46.268Z,94.31
2018-01-22T03:28:46.298Z,94.28
2018-01-22T03:29:46.410Z,94.5
2018-01-22T03:30:46.302Z,94.47
2018-01-22T03:31:46.241Z,94.49
2018-01-22T03:32:46.344Z,94.61
2018-01-22T03:33:46.269Z,94.5
2018-01-22T03:34:46.558Z,94.51
2018-01-22T03:35:46.172Z,94.76
2018-01-22T03:36:46.238Z,94.82
2018-01-22T03:37:46.216Z,94.95
2018-01-22T03:38:46.347Z,94.6
2018-01-22T03:39:46.252Z,94.56
2018-01-22T03:40:46.257Z,94.69
2018-01-22T03:41:46.332Z,94.75
2018-01-22T03:43:46.376Z,95.22
2018-01-22T03:44:46.282Z,95.05
2018-01-22T03:47:46.476Z,94.8
2018-01-22T03:48:46.283Z,94.96
2018-01-22T03:49:46.192Z,94.81
2018-01-22T03:50:46.199Z,95.05
2018-01-22T03:51:46.437Z,94.71
2018-01-22T03:52:46.265Z,95.21
2018-01-22T03:53:46.413Z,94.83
2018-01-22T03:54:46.172Z,94.73
2018-01-22T03:55:46.382Z,94.9
2018-01-22T03:56:46.501Z,95.05
2018-01-22T03:57:46.746Z,94.97
2018-01-22T03:58:46.295Z,95.03
2018-01-22T03:59:46.305Z,95.1
2018-01-22T04:00:46.408Z,95.06
2018-01-22T04:01:46.335Z,94.87
2018-01-22T04:02:46.442Z,95.06
2018-01-22T04:03:46.377Z,95.12
2018-01-22T04:04:46.192Z,95.04
2018-01-22T04:05:46.118Z,95.07
2018-01-22T04:06:46.239Z,95.09
2018-01-22T04:07:46.326Z,94.92
2018-01-22T04:08:46.455Z,95.12
2018-01-22T04:09:46.382Z,95.06
2018-01-22T04:10:46.337Z,94.95
2018-01-22T04:11:46.272Z,94.93
2018-01-22T04:12:46.325Z,95.23
2018-01-22T04:13:46.328Z,94.92
2018-01-22T04:14:46.349Z,95.02
2018-01-22T04:15:46.439Z,95.01
2018-01-22T04:16:46.368Z,95.26
2018-01-22T04:17:46.190Z,95.19
2018-01-22T04:18:46.389Z,95.16
2018-01-22T04:21:46.150Z,94.82
2018-01-22T04:22:46.329Z,94.98
2018-01-22T04:25:53.969Z,94.78
2018-01-22T04:28:46.499Z,94.96
2018-01-22T04:29:46.511Z,95.18
2018-01-22T04:30:46.242Z,94.91
2018-01-22T04:31:46.172Z,95.16
2018-01-22T04:32:46.341Z,95.15
2018-01-22T04:33:46.480Z,94.86
2018-01-22T04:34:46.408Z,94.85
2018-01-22T04:35:46.458Z,94.87
2018-01-22T04:36:46.360Z,94.98
2018-01-22T04:37:46.406Z,95.01
2018-01-22T04:38:46.410Z,95
2018-01-22T04:39:46.401Z,94.7
2018-01-22T04:40:46.359Z,94.72
2018-01-22T04:41:46.220Z,94.93
2018-01-22T04:42:46.374Z,94.79
2018-01-22T04:43:46.379Z,94.76
2018-01-22T04:44:46.329Z,94.51
2018-01-22T04:45:46.410Z,94.46
2018-01-22T04:48:46.435Z,94.74
2018-01-22T04:49:46.380Z,94.74
2018-01-22T04:50:46.453Z,94.83
2018-01-22T04:51:46.495Z,94.54
2018-01-22T04:52:46.428Z,94.67
2018-01-22T04:53:46.493Z,94.84
2018-01-22T04:54:46.724Z,94.82
2018-01-22T04:55:46.956Z,94.84
2018-01-22T04:56:46.448Z,94.65
2018-01-22T04:57:46.275Z,94.54
2018-01-22T05:00:46.430Z,94.46
2018-01-22T05:01:46.358Z,94.55
2018-01-22T05:02:46.375Z,94.67
2018-01-22T05:03:46.476Z,94.66
2018-01-22T05:04:46.389Z,94.39
2018-01-22T05:05:46.349Z,94.51
2018-01-22T05:06:46.348Z,94.63
2018-01-22T05:07:46.358Z,94.83
2018-01-22T05:08:46.365Z,95.02
2018-01-22T05:09:47.869Z,94.98
2018-01-22T05:10:46.541Z,94.89
2018-01-22T05:11:46.498Z,94.79
2018-01-22T05:12:46.478Z,94.82
2018-01-22T05:13:46.528Z,94.85
2018-01-22T05:14:46.519Z,95.11
2018-01-22T05:15:46.402Z,95.1
2018-01-22T05:16:46.405Z,95.07
2018-01-22T05:17:46.323Z,95.17
2018-01-22T05:18:46.471Z,95.19
2018-01-22T05:19:46.410Z,95.16
2018-01-22T05:20:46.304Z,95.4
2018-01-22T05:21:46.591Z,95.16
2018-01-22T05:22:46.461Z,95.39
2018-01-22T05:23:46.438Z,95.34
2018-01-22T05:24:46.306Z,95.16
2018-01-22T05:25:46.468Z,95.2
2018-01-22T05:26:46.528Z,95.55
2018-01-22T05:27:48.602Z,95.39
2018-01-22T05:28:46.428Z,95.45
2018-01-22T05:29:46.459Z,95.55
2018-01-22T05:30:46.472Z,95.51
2018-01-22T05:31:46.430Z,95.62
2018-01-22T05:32:46.354Z,96.17
2018-01-22T05:33:46.387Z,95.34
2018-01-22T05:34:46.370Z,95.33
2018-01-22T05:35:46.341Z,95.5
2018-01-22T05:36:47.425Z,95.27
2018-01-22T05:37:46.398Z,95.66
2018-01-22T05:38:46.318Z,95.42
2018-01-22T05:39:46.492Z,95.54
2018-01-22T05:40:46.642Z,95.39
2018-01-22T05:41:46.501Z,95.63
2018-01-22T05:42:46.228Z,95.42
2018-01-22T05:43:46.550Z,95.48
2018-01-22T05:44:46.576Z,95.34
2018-01-22T05:45:46.686Z,95.56
2018-01-22T05:46:46.593Z,95.48
2018-01-22T05:47:46.541Z,95.53
2018-01-22T05:48:46.619Z,95.5
2018-01-22T05:49:46.405Z,95.45
2018-01-22T05:50:46.468Z,95.36
2018-01-22T05:51:46.379Z,95.44
2018-01-22T05:52:46.845Z,95.39
2018-01-22T05:53:46.561Z,95.56
2018-01-22T05:54:46.505Z,95.5
2018-01-22T05:55:46.389Z,95.59
2018-01-22T05:56:46.541Z,95.44
2018-01-22T05:57:47.046Z,95.47
2018-01-22T05:58:46.553Z,95.44
2018-01-22T05:59:46.423Z,95.25
2018-01-22T06:00:46.445Z,95.14
2018-01-22T06:01:46.474Z,95.19
2018-01-22T06:02:46.916Z,95.75
2018-01-22T06:03:46.462Z,95.61
2018-01-22T06:04:46.442Z,95.71
2018-01-22T06:05:46.609Z,95.57
2018-01-22T06:06:46.498Z,95.4
2018-01-22T06:07:46.562Z,95.48
2018-01-22T06:08:46.671Z,95.54
2018-01-22T06:09:46.403Z,95.51
2018-01-22T06:10:46.422Z,95.55
2018-01-22T06:11:46.497Z,95.67
2018-01-22T06:12:46.433Z,95.78
2018-01-22T06:13:46.442Z,95.94
2018-01-22T06:14:46.627Z,95.8
2018-01-22T06:15:46.586Z,95.99
2018-01-22T06:16:46.452Z,95.99
2018-01-22T06:17:46.714Z,95.71
2018-01-22T06:18:46.480Z,95.77
2018-01-22T06:19:46.471Z,95.91
2018-01-22T06:20:46.604Z,96.1
2018-01-22T06:21:46.631Z,96.23
2018-01-22T06:22:46.630Z,95.94
2018-01-22T06:23:46.487Z,96.07
2018-01-22T06:24:46.415Z,96.18
2018-01-22T06:25:46.629Z,96.14
2018-01-22T06:26:46.544Z,96.33
2018-01-22T06:28:46.756Z,96.15
2018-01-22T06:29:46.531Z,96.26
2018-01-22T06:30:46.574Z,96.18
2018-01-22T06:31:46.459Z,96.25
2018-01-22T06:32:46.405Z,96.26
2018-01-22T06:33:46.408Z,96.4
2018-01-22T06:34:46.539Z,96.49
2018-01-22T06:35:46.680Z,96.56
2018-01-22T06:36:46.488Z,96.51
2018-01-22T06:37:46.468Z,96.55
2018-01-22T06:38:46.508Z,96.43
2018-01-22T06:39:46.640Z,96.64
2018-01-22T06:40:46.351Z,96.44
2018-01-22T06:41:46.810Z,96.28
2018-01-22T06:42:46.639Z,96.53
2018-01-22T06:43:46.497Z,96.61
2018-01-22T06:44:46.681Z,96.74
2018-01-22T06:45:46.734Z,96.73
2018-01-22T06:46:46.721Z,96.87
2018-01-22T06:47:46.743Z,96.76
2018-01-22T06:48:46.530Z,96.69
2018-01-22T06:49:46.561Z,97.01
2018-01-22T06:50:46.546Z,97.08
2018-01-22T06:51:46.602Z,97.06
2018-01-22T06:52:46.875Z,97.17
2018-01-22T06:53:46.728Z,97.1
2018-01-22T06:54:46.538Z,96.86
2018-01-22T06:55:46.699Z,97.05
2018-01-22T06:56:46.744Z,97.13
2018-01-22T06:57:46.619Z,97.09
2018-01-22T06:58:46.856Z,97.07
2018-01-22T07:02:46.606Z,97.08
2018-01-22T07:03:46.668Z,97.11
2018-01-22T07:04:46.751Z,97.29
2018-01-22T07:05:45.639Z,97.13
2018-01-22T07:06:45.715Z,97.02
2018-01-22T07:07:46.406Z,96.93
2018-01-22T07:08:45.862Z,97.12
2018-01-22T07:09:46.622Z,97.07
2018-01-22T07:10:45.788Z,97.04
2018-01-22T07:11:45.850Z,96.99
2018-01-22T07:12:45.837Z,96.96
2018-01-22T07:13:45.796Z,96.99
2018-01-22T07:17:12.717Z,96.89
2018-01-22T07:17:45.541Z,96.88
2018-01-22T07:18:45.745Z,97.03
2018-01-22T07:19:47.399Z,97.16
2018-01-22T07:20:46.852Z,97.14
2018-01-22T07:21:46.778Z,96.97
2018-01-22T07:22:46.806Z,96.85
2018-01-22T07:23:46.742Z,96.76
2018-01-22T07:24:46.757Z,96.66
2018-01-22T07:25:46.610Z,96.48
2018-01-22T07:26:46.510Z,96.55
2018-01-22T07:27:46.734Z,96.55
2018-01-22T07:28:47.163Z,96.51
2018-01-22T07:29:46.828Z,96.57
2018-01-22T07:30:47.591Z,96.94
2018-01-22T07:31:46.962Z,97.04
2018-01-22T07:32:46.998Z,97
2018-01-22T07:33:47.773Z,97
2018-01-22T07:37:46.667Z,97.15
2018-01-22T07:38:47.250Z,97.45
2018-01-22T07:39:47.109Z,97.28
2018-01-22T07:40:45.669Z,97.43
2018-01-22T07:41:45.887Z,97.33
2018-01-22T07:42:46.102Z,97.3
2018-01-22T07:43:46.065Z,97.15
2018-01-22T07:44:46.118Z,97.18
2018-01-22T07:45:46.147Z,97.07
2018-01-22T07:46:46.250Z,97.36
2018-01-22T07:47:46.070Z,97.5
2018-01-22T07:48:45.685Z,97.71
2018-01-22T07:49:45.721Z,97.54
2018-01-22T07:50:45.790Z,97.41
2018-01-22T07:51:45.744Z,97.41
2018-01-22T07:52:45.523Z,97.39
2018-01-22T07:53:45.878Z,97.21
2018-01-22T07:54:45.637Z,97.21
2018-01-22T07:55:45.879Z,97.29
2018-01-22T07:56:45.590Z,97.2
2018-01-22T07:57:45.855Z,97.14
2018-01-22T07:58:45.762Z,97.11
2018-01-22T07:59:45.829Z,97.16
2018-01-22T08:00:45.654Z,96.99
2018-01-22T08:01:45.786Z,96.84
2018-01-22T08:02:45.650Z,96.89
2018-01-22T08:04:45.672Z,97.19
2018-01-22T08:05:45.952Z,97.53
2018-01-22T08:06:45.854Z,97.32
2018-01-22T08:07:46.059Z,97.32
2018-01-22T08:08:45.888Z,97.38
2018-01-22T08:09:45.952Z,97.69
2018-01-22T08:10:46.024Z,97.69
2018-01-22T08:11:46.057Z,97.5
2018-01-22T08:12:45.998Z,97.49
2018-01-22T08:13:45.939Z,97.76
2018-01-22T08:14:45.938Z,97.6
2018-01-22T08:15:46.182Z,97.48
2018-01-22T08:18:46.478Z,97.76
2018-01-22T08:19:45.948Z,97.39
2018-01-22T08:20:46.001Z,97.6
2018-01-22T08:21:47.178Z,98.18
2018-01-22T08:22:45.979Z,97.84
2018-01-22T08:23:45.921Z,97.78
2018-01-22T08:24:45.754Z,97.44
2018-01-22T08:25:45.951Z,97.76
2018-01-22T08:26:45.904Z,97.81
2018-01-22T08:27:45.806Z,97.8
2018-01-22T08:28:45.972Z,97.55
2018-01-22T08:29:46.000Z,97.71
2018-01-22T08:30:46.777Z,98.23
2018-01-22T08:31:45.829Z,97.67
2018-01-22T08:32:45.957Z,97.89
2018-01-22T08:33:45.746Z,98.21
2018-01-22T08:34:45.727Z,98.53
2018-01-22T08:35:45.861Z,98.42
2018-01-22T08:36:45.861Z,98.26
2018-01-22T08:37:46.235Z,98.32
2018-01-22T08:38:46.177Z,99.1
2018-01-22T08:39:46.048Z,98.83
2018-01-22T08:40:46.101Z,98.65
2018-01-22T08:41:46.058Z,98.59
2018-01-22T08:42:46.252Z,98.29
2018-01-22T08:43:46.023Z,98.21
2018-01-22T08:44:46.218Z,98.34
2018-01-22T08:45:46.167Z,97.98
2018-01-22T08:46:46.006Z,98.46
2018-01-22T08:47:46.166Z,98.26
2018-01-22T08:48:46.090Z,98.15
2018-01-22T08:49:46.390Z,97.95
2018-01-22T08:50:45.940Z,98.1
2018-01-22T08:51:45.999Z,98.09
2018-01-22T08:52:46.798Z,98.02
2018-01-22T08:53:46.188Z,98.34
2018-01-22T08:54:46.027Z,97.91
2018-01-22T08:55:46.060Z,97.93
2018-01-22T08:56:46.073Z,98.06
2018-01-22T08:57:45.965Z,98.46
2018-01-22T08:58:46.269Z,98.29
2018-01-22T08:59:46.176Z,98.56
2018-01-22T09:00:46.065Z,98.58
2018-01-22T09:01:46.148Z,98.57
2018-01-22T09:02:46.197Z,98.4
2018-01-22T09:03:45.955Z,98.32
2018-01-22T09:04:46.065Z,98.24
2018-01-22T09:05:46.108Z,98.37
2018-01-22T09:06:46.178Z,98.35
2018-01-22T09:07:46.173Z,98.19
2018-01-22T09:08:46.299Z,98.3
2018-01-22T09:09:46.376Z,98.52
2018-01-22T09:10:46.099Z,98.38
2018-01-22T09:11:46.223Z,98.28
2018-01-22T09:12:46.323Z,98.08
2018-01-22T09:13:46.171Z,98.37
2018-01-22T09:14:46.278Z,98.33
2018-01-22T09:15:46.131Z,98.36
2018-01-22T09:16:46.133Z,98.31
2018-01-22T09:17:46.338Z,98.34
2018-01-22T09:18:46.260Z,98.72
2018-01-22T09:20:00.682Z,98.85
2018-01-22T09:20:46.367Z,98.52
2018-01-22T09:21:46.157Z,98.58
2018-01-22T09:22:46.041Z,98.42
2018-01-22T09:23:46.195Z,98.61
2018-01-22T09:24:46.165Z,98.81
2018-01-22T09:25:46.311Z,98.63
2018-01-22T09:26:46.293Z,98.61
2018-01-22T09:27:46.283Z,98.75
2018-01-22T09:28:46.047Z,98.68
2018-01-22T09:29:46.208Z,98.86
2018-01-22T09:30:46.357Z,99.06
2018-01-22T09:31:46.120Z,98.92
2018-01-22T09:32:46.088Z,98.95
2018-01-22T09:33:46.148Z,98.82
2018-01-22T09:34:46.279Z,98.68
2018-01-22T09:35:46.293Z,98.71
2018-01-22T09:36:46.508Z,98.64
2018-01-22T09:37:46.287Z,98.75
2018-01-22T09:38:46.411Z,98.48
2018-01-22T09:39:46.412Z,98.37
2018-01-22T09:40:48.672Z,98.36
2018-01-22T09:41:46.664Z,99.21
2018-01-22T09:42:46.402Z,99.06
2018-01-22T09:43:46.493Z,99.49
2018-01-22T09:44:46.459Z,99.22
2018-01-22T09:45:46.220Z,98.79
2018-01-22T09:46:46.460Z,98.64
2018-01-22T09:47:46.421Z,98.86
2018-01-22T09:48:46.420Z,99.01
2018-01-22T09:49:46.481Z,99.06
2018-01-22T09:50:46.508Z,98.79
2018-01-22T09:51:46.976Z,98.81
2018-01-22T09:52:46.242Z,99.07
2018-01-22T09:53:46.363Z,99.44
2018-01-22T09:54:46.527Z,99.39
2018-01-22T09:55:46.340Z,99.33
2018-01-22T09:56:46.477Z,98.88
2018-01-22T09:57:46.341Z,98.93
2018-01-22T09:58:46.354Z,99.72
2018-01-22T09:59:46.246Z,99.81
2018-01-22T10:00:46.514Z,99.4
2018-01-22T10:01:46.192Z,99.36
2018-01-22T10:02:46.436Z,99.77
2018-01-22T10:03:46.326Z,99.83
2018-01-22T10:04:46.261Z,100
2018-01-22T10:05:46.351Z,100
2018-01-22T10:06:47.120Z,99.66
2018-01-22T10:07:46.344Z,99.34
2018-01-22T10:08:46.505Z,99.21
2018-01-22T10:09:46.527Z,99
2018-01-22T10:10:46.397Z,98.97
2018-01-22T10:11:46.564Z,99.46
2018-01-22T10:12:46.352Z,100
2018-01-22T10:13:46.202Z,99.89
2018-01-22T10:14:46.377Z,100
2018-01-22T10:15:46.260Z,100
2018-01-22T10:16:46.471Z,100
2018-01-22T10:17:46.373Z,100
2018-01-22T10:18:46.426Z,100
2018-01-22T10:19:46.299Z,100
2018-01-22T10:20:46.409Z,100
2018-01-22T10:21:46.610Z,100
2018-01-22T10:22:46.329Z,100
2018-01-22T10:23:46.343Z,100
2018-01-22T10:24:46.414Z,100
2018-01-22T10:25:46.381Z,100
2018-01-22T10:26:46.871Z,100
2018-01-22T10:27:46.660Z,100
2018-01-22T10:28:46.540Z,100
2018-01-22T10:29:46.449Z,100
2018-01-22T10:30:46.418Z,100
2018-01-22T10:31:46.410Z,100
2018-01-22T10:32:48.302Z,100
2018-01-22T10:33:46.435Z,100
2018-01-22T10:34:46.288Z,100
2018-01-22T10:35:46.248Z,100
2018-01-22T10:36:46.318Z,100
2018-01-22T10:37:46.374Z,100
2018-01-22T10:38:46.279Z,100
2018-01-22T10:39:46.581Z,100
2018-01-22T10:40:46.350Z,100
2018-01-22T10:41:46.530Z,100
2018-01-22T10:42:46.280Z,100
2018-01-22T10:43:46.502Z,100
2018-01-22T10:44:46.591Z,100
2018-01-22T10:45:46.431Z,100
2018-01-22T10:46:46.497Z,99.93
2018-01-22T10:47:46.597Z,99.93
2018-01-22T10:48:46.326Z,99.71
2018-01-22T10:49:46.418Z,99.73
2018-01-22T10:50:46.435Z,99.77
2018-01-22T10:51:46.408Z,99.92
2018-01-22T10:52:46.505Z,99.99
2018-01-22T10:53:46.345Z,100
2018-01-22T10:54:46.451Z,99.85
2018-01-22T10:55:46.628Z,100
2018-01-22T10:56:46.415Z,99.89
2018-01-22T10:57:46.495Z,100
2018-01-22T10:58:46.194Z,100
2018-01-22T10:59:46.425Z,99.99
2018-01-22T11:00:46.614Z,99.8
2018-01-22T11:01:46.463Z,100
2018-01-22T11:02:46.328Z,99.74
2018-01-22T11:03:46.402Z,99.99
2018-01-22T11:04:46.316Z,100
2018-01-22T11:05:46.413Z,99.79
2018-01-22T11:06:46.554Z,100
2018-01-22T11:07:46.710Z,100
2018-01-22T11:08:45.886Z,100
2018-01-22T11:09:45.799Z,100
2018-01-22T11:10:45.757Z,100
2018-01-22T11:11:45.830Z,100
2018-01-22T11:12:45.927Z,100
2018-01-22T11:13:45.909Z,100
2018-01-22T11:14:45.722Z,100
2018-01-22T11:15:45.688Z,99.86
2018-01-22T11:16:45.558Z,99.75
2018-01-22T11:17:45.778Z,99.93
2018-01-22T11:18:45.726Z,99.94
2018-01-22T11:19:45.799Z,100
2018-01-22T11:20:45.584Z,99.93
2018-01-22T11:21:45.706Z,99.98
2018-01-22T11:22:45.642Z,100
2018-01-22T11:23:45.526Z,100
2018-01-22T11:24:45.627Z,100
2018-01-22T11:25:45.818Z,100
2018-01-22T11:26:45.719Z,100
2018-01-22T11:27:45.824Z,100
2018-01-22T11:28:46.056Z,100
2018-01-22T11:29:45.789Z,100
2018-01-22T11:30:45.908Z,100
2018-01-22T11:31:45.582Z,100
2018-01-22T11:32:45.694Z,100
2018-01-22T11:33:45.661Z,100
2018-01-22T11:34:45.920Z,100
2018-01-22T11:35:45.681Z,100
2018-01-22T11:36:45.569Z,100
2018-01-22T11:37:45.708Z,100
2018-01-22T11:38:45.743Z,99.87
2018-01-22T11:39:45.974Z,99.98
2018-01-22T11:40:45.766Z,100
2018-01-22T11:41:45.643Z,100
2018-01-22T11:42:46.020Z,100
2018-01-22T11:43:45.714Z,100
2018-01-22T11:44:45.873Z,100
2018-01-22T11:45:45.889Z,100
2018-01-22T11:46:45.994Z,99.82
2018-01-22T11:47:45.894Z,99.75
2018-01-22T11:48:46.180Z,100
2018-01-22T11:49:46.000Z,100
2018-01-22T11:50:45.654Z,100
2018-01-22T11:51:45.732Z,100
2018-01-22T11:52:45.727Z,100
2018-01-22T11:53:45.600Z,100
2018-01-22T11:54:45.943Z,100
2018-01-22T11:55:45.912Z,100
2018-01-22T11:56:45.863Z,100
2018-01-22T11:57:45.761Z,100
2018-01-22T11:58:45.862Z,99.95
2018-01-22T11:59:46.035Z,100
2018-01-22T12:00:45.842Z,100
2018-01-22T12:01:45.678Z,100
2018-01-22T12:02:45.865Z,100
2018-01-22T12:03:45.842Z,100
2018-01-22T12:04:45.832Z,99.93
2018-01-22T12:05:45.733Z,100
2018-01-22T12:06:45.851Z,100
2018-01-22T12:07:45.881Z,100
2018-01-22T12:08:46.231Z,100
2018-01-22T12:09:46.406Z,100
2018-01-22T12:10:46.267Z,100
2018-01-22T12:11:46.294Z,100
2018-01-22T12:12:46.373Z,100
2018-01-22T12:13:46.302Z,99.93
2018-01-22T12:14:46.782Z,99.68
2018-01-22T12:15:46.224Z,99.93
2018-01-22T12:16:46.487Z,99.55
2018-01-22T12:17:46.572Z,99.39
2018-01-22T12:18:46.444Z,99.86
2018-01-22T12:19:46.527Z,99.77
2018-01-22T12:20:46.279Z,100
2018-01-22T12:21:46.288Z,100
2018-01-22T12:22:46.396Z,99.85
2018-01-22T12:23:46.251Z,99.51
2018-01-22T12:24:46.311Z,99.2
2018-01-22T12:25:46.702Z,99.41
2018-01-22T12:26:46.412Z,99.39
2018-01-22T12:27:47.342Z,99.38
2018-01-22T12:28:46.383Z,99.51
2018-01-22T12:29:46.388Z,99.25
2018-01-22T12:30:46.408Z,99.4
2018-01-22T12:31:46.583Z,99.16
2018-01-22T12:32:46.661Z,99.38
2018-01-22T12:33:46.482Z,99.17
2018-01-22T12:34:46.396Z,99.39
2018-01-22T12:35:46.429Z,99.74
2018-01-22T12:36:46.293Z,99.81
2018-01-22T12:37:46.408Z,99.88
2018-01-22T12:38:46.479Z,100
2018-01-22T12:39:46.319Z,99.89
2018-01-22T12:40:46.454Z,99.72
2018-01-22T12:41:46.674Z,100
2018-01-22T12:42:46.660Z,100
2018-01-22T12:43:46.506Z,99.78
2018-01-22T12:44:46.522Z,99.89
2018-01-22T12:45:46.592Z,100
2018-01-22T12:46:46.507Z,100
2018-01-22T12:47:46.661Z,100
2018-01-22T12:48:46.503Z,99.91
2018-01-22T12:49:46.599Z,100
2018-01-22T12:50:46.489Z,99.66
2018-01-22T12:51:46.415Z,99.72
2018-01-22T12:52:46.695Z,99.65
2018-01-22T12:53:47.339Z,99.83
2018-01-22T12:54:46.581Z,99.98
2018-01-22T12:55:46.737Z,99.98
2018-01-22T12:56:46.476Z,99.75
2018-01-22T12:57:46.476Z,99.38
2018-01-22T12:58:46.402Z,99.24
2018-01-22T12:59:46.448Z,99.22
2018-01-22T13:00:46.380Z,98.94
2018-01-22T13:01:46.522Z,99.12
2018-01-22T13:02:46.467Z,99.05
2018-01-22T13:03:46.399Z,99.02
2018-01-22T13:04:46.378Z,99.03
2018-01-22T13:05:46.579Z,99.08
2018-01-22T13:06:46.420Z,99.56
2018-01-22T13:07:46.383Z,99.95
2018-01-22T13:08:46.834Z,99.57
2018-01-22T13:09:46.459Z,99.44
2018-01-22T13:10:46.447Z,99.96
2018-01-22T13:11:46.385Z,99.93
2018-01-22T13:12:46.513Z,99.94
2018-01-22T13:13:46.483Z,99.93
2018-01-22T13:14:46.439Z,99.76
2018-01-22T13:15:46.625Z,99.75
2018-01-22T13:16:46.463Z,100
2018-01-22T13:17:46.346Z,100
2018-01-22T13:18:46.756Z,100
2018-01-22T13:19:46.702Z,100
2018-01-22T13:20:46.388Z,100
2018-01-22T13:21:46.392Z,100
2018-01-22T13:22:46.436Z,100
2018-01-22T13:23:46.570Z,100
2018-01-22T13:24:46.560Z,100
2018-01-22T13:25:46.617Z,100
2018-01-22T13:26:46.581Z,100
2018-01-22T13:27:46.335Z,99.88
2018-01-22T13:28:46.686Z,100
2018-01-22T13:29:46.519Z,99.9
2018-01-22T13:30:46.653Z,99.77
2018-01-22T13:31:46.761Z,99.91
2018-01-22T13:32:46.723Z,99.85
2018-01-22T13:33:46.619Z,99.83
2018-01-22T13:34:46.578Z,100
2018-01-22T13:35:46.414Z,99.96
2018-01-22T13:36:46.754Z,99.67
2018-01-22T13:37:46.655Z,99.69
2018-01-22T13:38:46.869Z,99.82
2018-01-22T13:39:46.562Z,99.82
2018-01-22T13:40:46.527Z,99.7
2018-01-22T13:41:46.662Z,99.52
2018-01-22T13:42:46.509Z,99.32
2018-01-22T13:43:46.701Z,99.3
2018-01-22T13:44:46.579Z,99.23
2018-01-22T13:45:46.570Z,99.5